Time;durP1;ratioP1;P1;durP2;ratioP2;P2;SDS_P1;SDS_P2;PMS_P1;PMS_P2;Temp;Humidity;BMP_temperature;BMP_pressure;BME280_temperature;BME280_humidity;BME280_pressure;Samples;Min_cycle;Max_cycle;Signal;HPM_P1;HPM_P2
2022/04/26 03:37:17;;;;;;;39.00;20.58;;;;;;;6.38;100.00;99106.06;8503355;27;20474;-74
2022/04/26 03:41:18;;;;;;;40.30;20.80;;;;;;;6.40;100.00;99119.19;8503808;27;20047;-74
2022/04/26 03:45:19;;;;;;;44.25;20.77;;;;;;;6.39;100.00;99117.59;8476733;27;20047;-74
2022/04/26 03:49:21;;;;;;;46.10;21.02;;;;;;;6.41;100.00;99120.78;8497172;27;20038;-75
2022/04/26 03:53:22;;;;;;;41.22;20.17;;;;;;;6.34;100.00;99132.63;8510958;27;20068;-75
2022/04/26 03:57:23;;;;;;;39.17;20.52;;;;;;;6.31;100.00;99122.47;8515813;27;20128;-75
2022/04/26 04:01:24;;;;;;;38.03;20.65;;;;;;;6.33;100.00;99120.31;8502476;27;20038;-74
2022/04/26 04:05:25;;;;;;;42.85;20.75;;;;;;;6.34;100.00;99127.25;8512621;27;20108;-74
2022/04/26 04:09:26;;;;;;;41.53;20.33;;;;;;;6.35;100.00;99115.47;8512619;27;20106;-74
2022/04/26 04:13:27;;;;;;;36.05;20.10;;;;;;;6.41;100.00;99131.50;8497421;27;20088;-74
2022/04/26 04:17:28;;;;;;;44.13;20.02;;;;;;;6.47;100.00;99130.41;8525067;27;20047;-74
2022/04/26 04:21:29;;;;;;;39.50;20.30;;;;;;;6.44;100.00;99147.06;8529312;27;20045;-74
2022/04/26 04:25:30;;;;;;;46.80;20.00;;;;;;;6.52;100.00;99141.09;8528356;27;20046;-74
2022/04/26 04:29:31;;;;;;;38.95;20.77;;;;;;;6.55;100.00;99143.22;8507641;27;20062;-74
2022/04/26 04:33:35;;;;;;;47.80;21.92;;;;;;;6.63;100.00;99150.66;8523262;27;20141;-75
2022/04/26 04:37:36;;;;;;;43.15;20.50;;;;;;;6.74;100.00;99141.44;8479968;28;20487;-74
2022/04/26 04:41:37;;;;;;;39.58;21.02;;;;;;;6.72;100.00;99148.94;8494708;27;20051;-74
2022/04/26 04:45:39;;;;;;;51.75;24.25;;;;;;;6.78;100.00;99155.88;8521633;27;20412;-74
2022/04/26 04:49:40;;;;;;;44.35;22.00;;;;;;;6.89;100.00;99165.44;8525739;27;20047;-74
2022/04/26 04:53:41;;;;;;;47.58;21.95;;;;;;;6.92;100.00;99167.59;8526981;27;20511;-74
2022/04/26 04:57:42;;;;;;;41.30;20.75;;;;;;;6.88;100.00;99163.84;8489116;27;20051;-74
2022/04/26 05:01:43;;;;;;;36.20;20.67;;;;;;;6.89;100.00;99181.56;8510464;27;20059;-74
2022/04/26 05:05:44;;;;;;;39.17;21.35;;;;;;;6.93;100.00;99182.56;8527497;27;20420;-74
2022/04/26 05:09:45;;;;;;;41.30;21.92;;;;;;;6.92;100.00;99186.38;8508321;27;20053;-74
2022/04/26 05:13:46;;;;;;;40.63;21.55;;;;;;;6.96;100.00;99192.78;8524604;27;20496;-74
2022/04/26 05:17:47;;;;;;;41.50;21.77;;;;;;;6.93;100.00;99198.69;8527282;27;20062;-74
2022/04/26 05:21:48;;;;;;;42.83;23.08;;;;;;;6.94;100.00;99200.28;8527161;27;20054;-74
2022/04/26 05:25:49;;;;;;;41.42;22.13;;;;;;;6.99;100.00;99205.63;8521822;27;20564;-74
2022/04/26 05:29:50;;;;;;;41.60;22.55;;;;;;;6.98;100.00;99206.69;8506667;27;20047;-74
2022/04/26 05:33:51;;;;;;;43.30;22.25;;;;;;;6.99;100.00;99204.81;8530658;27;20149;-74
2022/04/26 05:37:52;;;;;;;42.20;22.23;;;;;;;7.08;100.00;99200.47;8504347;27;20458;-74
2022/04/26 05:41:53;;;;;;;48.35;23.58;;;;;;;7.15;100.00;99212.44;8486633;27;20138;-74
2022/04/26 05:45:54;;;;;;;48.50;24.50;;;;;;;7.12;100.00;99213.03;8499981;27;20053;-74
2022/04/26 05:49:56;;;;;;;46.58;23.08;;;;;;;7.11;100.00;99216.78;8513204;27;20047;-75
2022/04/26 05:53:57;;;;;;;49.45;25.08;;;;;;;7.15;100.00;99217.81;8501894;27;20043;-75
2022/04/26 05:57:58;;;;;;;42.25;21.77;;;;;;;7.22;100.00;99220.19;8514560;27;20046;-74
2022/04/26 06:01:59;;;;;;;40.75;21.70;;;;;;;7.25;100.00;99224.16;8522548;27;20399;-74
2022/04/26 06:06:00;;;;;;;42.47;22.70;;;;;;;7.21;99.88;99221.25;8473309;27;20047;-74
2022/04/26 06:10:02;;;;;;;42.30;21.90;;;;;;;7.28;99.64;99226.31;8499160;27;20051;-74
2022/04/26 06:14:04;;;;;;;39.75;21.38;;;;;;;7.37;99.12;99232.66;8532286;27;20057;-74
2022/04/26 06:18:05;;;;;;;38.97;19.08;;;;;;;7.44;97.53;99233.13;8458920;27;20046;-74
2022/04/26 06:22:06;;;;;;;39.22;20.27;;;;;;;7.47;97.46;99229.84;8459268;27;20058;-74
2022/04/26 06:26:08;;;;;;;36.38;20.70;;;;;;;7.60;97.22;99235.38;8521306;27;20442;-74
2022/04/26 06:30:09;;;;;;;35.92;19.23;;;;;;;7.74;96.75;99232.78;8511481;27;20084;-74
2022/04/26 06:34:10;;;;;;;33.58;18.02;;;;;;;7.77;96.82;99242.97;8506823;27;20080;-75
2022/04/26 06:38:11;;;;;;;33.20;17.83;;;;;;;7.83;96.13;99244.50;8515152;27;20476;-74
2022/04/26 06:42:12;;;;;;;31.40;17.70;;;;;;;8.01;95.55;99235.69;8477392;27;20067;-74
2022/04/26 06:46:13;;;;;;;29.90;16.80;;;;;;;8.05;95.00;99247.47;8497431;27;20047;-74
2022/04/26 06:50:14;;;;;;;29.55;16.73;;;;;;;8.06;94.30;99254.44;8498988;27;20043;-74
2022/04/26 06:54:15;;;;;;;29.52;16.30;;;;;;;8.06;92.82;99254.44;8460812;27;20067;-74
2022/04/26 06:58:17;;;;;;;28.73;14.50;;;;;;;8.02;91.46;99258.81;8510204;27;20094;-74
2022/04/26 07:02:20;;;;;;;29.25;15.48;;;;;;;8.14;91.13;99260.28;8512180;27;20043;-74
2022/04/26 07:06:21;;;;;;;30.77;17.35;;;;;;;8.15;90.85;99256.47;8504333;27;20043;-74
2022/04/26 07:10:22;;;;;;;29.08;14.02;;;;;;;8.36;90.22;99265.91;8506021;27;20042;-74
2022/04/26 07:14:23;;;;;;;21.38;12.98;;;;;;;8.59;89.13;99267.75;8528157;27;20171;-74
2022/04/26 07:18:26;;;;;;;27.75;14.13;;;;;;;8.79;88.43;99262.06;8503035;27;20055;-74
2022/04/26 07:22:27;;;;;;;24.70;12.18;;;;;;;8.86;87.10;99257.09;8508607;27;20531;-74
2022/04/26 07:26:28;;;;;;;21.88;12.15;;;;;;;8.64;86.83;99264.97;8505577;27;20061;-74
2022/04/26 07:30:34;;;;;;;28.45;12.65;;;;;;;8.78;86.69;99265.84;8515336;27;20155;-74
2022/04/26 07:34:35;;;;;;;22.27;12.15;;;;;;;8.72;84.84;99274.31;8517691;27;20547;-74
2022/04/26 07:38:36;;;;;;;22.15;12.60;;;;;;;8.67;85.08;99275.16;8491646;27;20560;-74
2022/04/26 07:42:37;;;;;;;23.58;12.70;;;;;;;8.81;85.50;99286.00;8511825;27;20069;-74
2022/04/26 07:46:38;;;;;;;21.15;12.10;;;;;;;8.93;84.62;99282.88;8495176;27;20047;-74
2022/04/26 07:50:39;;;;;;;20.15;11.85;;;;;;;8.98;84.91;99280.09;8441689;27;20047;-75
2022/04/26 07:54:41;;;;;;;21.77;11.95;;;;;;;9.01;85.10;99290.28;8476434;27;20489;-74
2022/04/26 07:58:41;;;;;;;22.60;11.40;;;;;;;8.88;83.46;99281.84;8496113;27;20058;-74
2022/04/26 08:02:43;;;;;;;26.13;12.65;;;;;;;9.00;82.54;99283.28;8510180;27;20077;-74
2022/04/26 08:06:44;;;;;;;26.77;13.57;;;;;;;9.07;82.66;99294.50;8503310;27;20050;-74
2022/04/26 08:10:45;;;;;;;22.27;12.13;;;;;;;9.08;82.91;99301.47;8517894;27;20054;-74
2022/04/26 08:14:46;;;;;;;27.52;13.35;;;;;;;9.31;82.96;99309.44;8528910;27;20046;-73
2022/04/26 08:18:47;;;;;;;18.83;10.57;;;;;;;9.49;83.14;99313.19;8515616;27;20130;-73
2022/04/26 08:22:48;;;;;;;23.25;12.18;;;;;;;9.66;81.53;99324.22;8526090;27;20055;-73
2022/04/26 08:31:09;;;;;;;17.80;9.75;;;;;;;10.37;77.19;99330.16;8493858;27;20129;-73
2022/04/26 08:35:13;;;;;;;21.63;11.88;;;;;;;10.56;77.15;99337.03;8502086;27;20047;-73
2022/04/26 08:39:14;;;;;;;17.27;10.10;;;;;;;10.44;76.64;99334.06;8495454;28;20055;-73
2022/04/26 08:43:16;;;;;;;17.80;10.48;;;;;;;10.61;75.84;99321.81;8495218;28;20039;-73
2022/04/26 08:51:36;;;;;;;20.10;11.57;;;;;;;10.62;76.42;99324.22;8458445;28;20049;-73
2022/04/26 08:55:45;;;;;;;16.92;11.32;;;;;;;10.72;75.18;99328.59;8495107;28;20050;-73
2022/04/26 08:59:52;;;;;;;17.55;10.93;;;;;;;10.76;75.28;99337.69;8495163;28;20054;-73
2022/04/26 09:03:55;;;;;;;17.10;9.68;;;;;;;10.68;75.70;99333.03;8459462;27;20504;-73
2022/04/26 09:07:58;;;;;;;17.90;9.70;;;;;;;10.65;75.21;99344.41;8501680;27;20051;-73
2022/04/26 09:12:00;;;;;;;13.85;9.32;;;;;;;10.87;75.59;99336.38;8502564;27;20508;-73
2022/04/26 09:16:02;;;;;;;13.73;9.77;;;;;;;10.88;74.29;99343.38;8486449;27;20442;-73
2022/04/26 09:20:04;;;;;;;19.10;9.57;;;;;;;10.87;73.70;99347.16;8484958;27;20051;-73
2022/04/26 09:24:06;;;;;;;15.05;9.75;;;;;;;10.93;74.35;99343.25;8523758;27;20094;-73
2022/04/26 09:28:08;;;;;;;16.33;10.27;;;;;;;11.43;73.96;99339.34;8520437;27;20130;-73
2022/04/26 09:32:09;;;;;;;20.90;9.98;;;;;;;12.08;70.01;99341.47;8503799;27;20087;-73
2022/04/26 09:36:10;;;;;;;16.88;9.20;;;;;;;12.20;70.82;99341.69;8499918;27;20047;-73
2022/04/26 09:40:12;;;;;;;16.83;10.85;;;;;;;11.91;70.23;99343.28;8511162;27;20412;-73
2022/04/26 09:44:13;;;;;;;14.95;9.75;;;;;;;11.84;69.34;99354.56;8495171;27;20493;-72
2022/04/26 09:48:24;;;;;;;18.27;10.13;;;;;;;11.56;70.48;99353.09;8529929;27;20696;-72
2022/04/26 09:52:25;;;;;;;15.27;8.95;;;;;;;11.46;69.67;99337.13;8514966;27;20081;-72
2022/04/26 09:56:27;;;;;;;14.73;8.93;;;;;;;12.09;70.18;99334.94;8533159;27;20106;-73
2022/04/26 10:00:28;;;;;;;16.92;8.93;;;;;;;12.76;68.71;99342.75;8533303;27;20134;-73
2022/04/26 10:04:30;;;;;;;12.15;7.63;;;;;;;12.68;67.29;99340.84;8479706;27;20074;-73
2022/04/26 10:08:34;;;;;;;13.75;8.45;;;;;;;12.97;66.38;99343.72;8532926;27;20050;-73
2022/04/26 10:12:36;;;;;;;14.05;6.75;;;;;;;13.30;64.31;99343.28;8532759;27;20065;-72
2022/04/26 10:16:38;;;;;;;12.90;8.27;;;;;;;13.49;63.59;99339.09;8529310;27;20043;-74
2022/04/26 10:20:40;;;;;;;13.00;7.50;;;;;;;13.28;63.98;99345.50;8532580;27;20055;-73
2022/04/26 10:25:11;;;;;;;12.35;7.13;;;;;;;12.86;65.03;99350.56;8532699;27;20047;-73
2022/04/26 10:29:15;;;;;;;15.73;7.32;;;;;;;12.68;65.38;99347.06;8526074;27;20100;-73
2022/04/26 10:33:40;;;;;;;10.68;6.72;;;;;;;12.96;65.46;99344.84;8444784;27;20043;-73
2022/04/26 10:37:41;;;;;;;11.38;6.65;;;;;;;13.40;64.09;99351.09;8497591;27;20493;-73
2022/04/26 10:41:46;;;;;;;9.70;6.13;;;;;;;13.44;62.68;99335.75;8479172;27;20069;-74
2022/04/26 10:46:12;;;;;;;11.52;6.03;;;;;;;13.66;62.04;99337.47;8479633;27;20055;-73
2022/04/26 10:50:30;;;;;;;8.25;5.63;;;;;;;13.31;61.84;99331.31;8497228;27;20046;-72
2022/04/26 10:54:47;;;;;;;7.20;5.77;;;;;;;13.22;61.39;99338.66;8497311;27;20051;-73
2022/04/26 10:58:54;;;;;;;10.65;7.03;;;;;;;13.51;62.21;99334.16;8497204;27;20416;-73
2022/04/26 11:03:01;;;;;;;10.70;6.05;;;;;;;13.80;58.19;99330.72;8443798;27;20053;-73
2022/04/26 11:07:15;;;;;;;10.60;6.20;;;;;;;13.93;57.24;99337.88;8496967;27;20050;-73
2022/04/26 11:11:17;;;;;;;9.25;5.20;;;;;;;14.50;57.48;99334.75;8497060;27;20051;-74
2022/04/26 11:15:20;;;;;;;8.05;5.28;;;;;;;14.30;57.54;99338.19;8496648;27;20341;-73
2022/04/26 11:19:29;;;;;;;11.88;5.10;;;;;;;13.79;58.45;99342.72;8496102;27;20051;-74
2022/04/26 11:28:21;;;;;;;8.63;5.55;;;;;;;13.41;60.37;99353.47;8497331;27;20034;-74
2022/04/26 11:32:30;;;;;;;11.85;5.75;;;;;;;13.47;60.76;99345.97;8529285;27;20793;-75
2022/04/26 11:36:37;;;;;;;11.93;5.63;;;;;;;13.43;60.21;99345.03;8529493;27;20042;-75
2022/04/26 11:40:41;;;;;;;11.43;5.47;;;;;;;13.31;59.48;99353.00;8499325;27;20057;-75
2022/04/26 11:45:01;;;;;;;7.32;5.38;;;;;;;13.35;59.25;99353.97;8497051;27;20069;-73
2022/04/26 11:49:04;;;;;;;8.80;5.43;;;;;;;13.61;59.84;99357.44;8498468;27;20061;-74
2022/04/26 11:53:07;;;;;;;9.73;5.78;;;;;;;13.70;59.56;99354.69;8510082;27;20411;-73
2022/04/26 11:57:09;;;;;;;8.75;5.07;;;;;;;13.50;58.89;99356.19;8523033;27;20039;-73
2022/04/26 12:01:12;;;;;;;5.95;4.30;;;;;;;13.46;57.62;99355.22;8477236;27;20099;-73
2022/04/26 12:05:15;;;;;;;8.35;4.82;;;;;;;13.53;57.18;99363.69;8495038;27;20073;-74
2022/04/26 12:09:16;;;;;;;7.93;4.97;;;;;;;13.59;57.17;99354.22;8505932;27;20499;-73
2022/04/26 12:13:30;;;;;;;10.27;5.72;;;;;;;13.73;56.97;99360.28;8503415;27;20208;-73
2022/04/26 12:17:31;;;;;;;8.45;5.18;;;;;;;13.92;57.25;99352.56;8494538;27;20081;-73
2022/04/26 12:21:56;;;;;;;9.15;5.85;;;;;;;13.89;55.89;99358.66;8499563;27;20034;-73
2022/04/26 12:26:01;;;;;;;10.73;5.75;;;;;;;13.86;54.85;99353.06;8529178;27;20103;-73
2022/04/26 12:30:09;;;;;;;10.35;5.35;;;;;;;13.99;55.47;99351.28;8528131;27;20038;-73
2022/04/26 12:34:17;;;;;;;10.80;5.50;;;;;;;14.17;55.48;99352.81;8526388;27;20051;-73
2022/04/26 12:38:18;;;;;;;7.77;5.07;;;;;;;14.28;53.90;99349.38;8493621;27;20045;-74
2022/04/26 12:42:30;;;;;;;9.55;5.22;;;;;;;14.43;52.45;99350.78;8529701;27;20055;-73
2022/04/26 12:51:28;;;;;;;8.35;5.00;;;;;;;14.16;54.51;99351.22;8504386;27;20038;-74
2022/04/26 12:55:39;;;;;;;8.27;5.53;;;;;;;14.04;54.57;99353.81;8507009;27;20093;-73
2022/04/26 12:59:41;;;;;;;9.88;5.68;;;;;;;13.92;55.60;99346.34;8507759;27;20074;-75
2022/04/26 13:03:42;;;;;;;9.25;4.93;;;;;;;13.80;56.37;99349.72;8509485;27;20043;-74
2022/04/26 13:07:46;;;;;;;10.55;5.55;;;;;;;13.73;56.95;99349.44;8541617;27;20043;-74
2022/04/26 13:11:48;;;;;;;7.63;5.00;;;;;;;13.54;56.79;99351.69;8541410;27;20035;-73
2022/04/26 13:15:49;;;;;;;9.48;5.10;;;;;;;13.58;54.54;99352.66;8541196;27;20050;-74
2022/04/26 13:19:50;;;;;;;7.30;5.10;;;;;;;13.48;55.50;99342.16;8541440;27;20057;-73
2022/04/26 13:23:52;;;;;;;7.25;4.70;;;;;;;13.39;55.83;99349.47;8519778;27;20047;-73
2022/04/26 13:27:53;;;;;;;7.80;4.97;;;;;;;13.44;56.56;99352.03;8518847;27;20082;-73
2022/04/26 13:31:54;;;;;;;7.35;5.00;;;;;;;13.49;55.74;99354.56;8510939;27;20046;-73
2022/04/26 13:35:56;;;;;;;10.07;5.72;;;;;;;13.27;55.70;99343.94;8467328;27;20039;-74
2022/04/26 13:39:59;;;;;;;10.98;5.95;;;;;;;13.19;56.61;99344.72;8526378;27;20401;-73
2022/04/26 13:44:00;;;;;;;8.50;5.63;;;;;;;13.19;57.57;99350.13;8533961;27;20088;-73
2022/04/26 13:48:11;;;;;;;8.85;5.85;;;;;;;13.11;57.57;99344.38;8533433;27;20054;-73
2022/04/26 13:52:13;;;;;;;8.52;5.47;;;;;;;13.03;58.62;99342.47;8524782;27;20510;-74
2022/04/26 13:56:14;;;;;;;9.25;5.30;;;;;;;12.93;58.90;99348.19;8482923;27;20130;-73
2022/04/26 14:00:16;;;;;;;8.85;6.00;;;;;;;12.86;59.11;99347.88;8460067;27;20450;-73
2022/04/26 14:04:17;;;;;;;11.40;6.45;;;;;;;12.75;59.78;99352.00;8463153;27;20039;-74
2022/04/26 14:08:18;;;;;;;9.52;6.60;;;;;;;12.77;60.58;99344.34;8505583;27;20534;-73
2022/04/26 14:12:19;;;;;;;16.33;7.45;;;;;;;12.82;60.71;99346.91;8504428;27;20065;-74
2022/04/26 14:25:08;;;;;;;8.85;5.85;;;;;;;12.87;61.31;99349.47;8498112;27;20046;-74
2022/04/26 14:29:09;;;;;;;12.02;6.20;;;;;;;12.92;61.42;99356.63;8492595;27;20058;-74
2022/04/26 14:33:10;;;;;;;10.10;6.28;;;;;;;12.91;60.61;99350.41;8532261;27;20050;-73
2022/04/26 14:37:12;;;;;;;10.57;5.70;;;;;;;12.90;60.89;99348.81;8532151;27;20056;-73
2022/04/26 14:41:13;;;;;;;12.32;6.13;;;;;;;12.90;59.47;99353.47;8531664;27;20523;-73
2022/04/26 14:45:14;;;;;;;9.93;6.22;;;;;;;12.83;59.54;99351.22;8510606;27;20046;-73
2022/04/26 14:49:16;;;;;;;11.40;6.60;;;;;;;12.82;60.76;99346.91;8493966;27;20130;-73
2022/04/26 14:53:18;;;;;;;8.23;5.63;;;;;;;12.73;60.45;99351.53;8492355;27;20769;-74
2022/04/26 14:57:21;;;;;;;13.02;7.05;;;;;;;12.69;61.11;99350.53;8475265;27;20095;-73
2022/04/26 15:01:22;;;;;;;9.50;5.90;;;;;;;12.68;61.94;99346.25;8500644;27;20047;-74
2022/04/26 15:05:26;;;;;;;8.80;5.53;;;;;;;12.64;62.82;99350.69;8507864;27;20047;-73
2022/04/26 15:09:52;;;;;;;9.07;5.30;;;;;;;12.58;62.97;99351.97;8525887;27;20100;-73
2022/04/26 15:18:12;;;;;;;13.13;5.70;;;;;;;12.53;63.54;99344.00;8514475;27;20058;-74
2022/04/26 15:22:13;;;;;;;10.80;6.75;;;;;;;12.51;63.93;99340.81;8484233;27;20058;-74
2022/04/26 15:26:14;;;;;;;9.07;5.78;;;;;;;12.52;64.33;99347.81;8496138;27;20077;-74
2022/04/26 15:30:15;;;;;;;8.48;5.32;;;;;;;12.45;64.13;99337.44;8511755;27;20039;-74
2022/04/26 15:34:16;;;;;;;9.85;5.70;;;;;;;12.46;64.48;99338.25;8529697;27;20041;-74
2022/04/26 15:38:18;;;;;;;8.18;5.40;;;;;;;12.46;64.96;99343.66;8518128;27;20518;-74
2022/04/26 15:42:19;;;;;;;8.73;5.65;;;;;;;12.43;65.63;99338.84;8528773;27;20736;-74
2022/04/26 15:46:20;;;;;;;9.45;5.97;;;;;;;12.41;66.21;99346.50;8509810;27;20288;-74
2022/04/26 15:50:21;;;;;;;10.27;6.40;;;;;;;12.25;66.26;99338.81;8492745;27;20042;-74
2022/04/26 15:54:22;;;;;;;11.50;7.15;;;;;;;12.12;66.74;99334.31;8529093;27;20106;-74
2022/04/26 15:58:23;;;;;;;22.02;12.07;;;;;;;12.10;66.93;99335.75;8469403;27;20062;-74
2022/04/26 16:02:24;;;;;;;22.02;12.73;;;;;;;12.12;66.87;99339.72;8525922;27;20043;-74
2022/04/26 16:06:25;;;;;;;23.45;11.85;;;;;;;12.39;66.42;99335.19;8475862;27;20412;-74
2022/04/26 16:23:25;;;;;;;21.00;11.10;;;;;;;12.18;65.45;99338.47;8528781;27;20053;-74
2022/04/26 16:27:27;;;;;;;23.17;10.40;;;;;;;12.04;65.29;99342.41;8509904;27;20043;-74
2022/04/26 16:31:28;;;;;;;17.88;10.05;;;;;;;12.18;64.62;99338.47;8519902;27;20053;-74
2022/04/26 16:35:29;;;;;;;15.40;10.02;;;;;;;12.24;64.94;99342.63;8515679;27;20389;-74
2022/04/26 16:39:30;;;;;;;14.55;9.70;;;;;;;12.24;65.69;99337.22;8441287;28;20047;-74
2022/04/26 16:43:33;;;;;;;18.60;10.30;;;;;;;12.18;65.82;99343.88;8495081;27;20615;-74
2022/04/26 16:47:35;;;;;;;17.17;11.52;;;;;;;12.01;66.70;99343.00;8495896;27;20050;-75
2022/04/26 16:51:36;;;;;;;18.02;10.75;;;;;;;11.80;67.53;99348.16;8484693;27;20441;-74
2022/04/26 16:55:38;;;;;;;19.88;10.80;;;;;;;11.70;68.43;99348.41;8494126;28;20054;-74
2022/04/26 16:59:39;;;;;;;21.95;11.18;;;;;;;11.56;69.24;99358.50;8475540;28;20051;-74
2022/04/26 17:03:40;;;;;;;17.95;11.45;;;;;;;11.41;70.02;99357.78;8481033;28;20414;-75
2022/04/26 17:07:41;;;;;;;24.35;14.05;;;;;;;11.30;70.53;99361.84;8507693;27;20070;-74
2022/04/26 17:11:42;;;;;;;22.35;13.45;;;;;;;11.18;71.21;99364.28;8475819;28;20051;-74
2022/04/26 17:15:43;;;;;;;26.40;13.20;;;;;;;11.14;71.33;99374.13;8512878;27;20103;-76
2022/04/26 17:19:44;;;;;;;23.73;13.95;;;;;;;11.03;71.52;99378.16;8477825;27;20050;-74
2022/04/26 17:23:45;;;;;;;24.95;13.80;;;;;;;10.92;71.76;99382.97;8508979;27;20038;-74
2022/04/26 17:27:49;;;;;;;23.50;12.88;;;;;;;10.79;72.51;99377.59;8495842;27;20057;-74
2022/04/26 17:31:51;;;;;;;23.85;13.00;;;;;;;10.64;73.22;99381.44;8533181;27;20415;-74
2022/04/26 17:35:52;;;;;;;21.23;12.32;;;;;;;10.48;73.82;99389.03;8527370;27;20061;-74
2022/04/26 17:39:53;;;;;;;22.67;12.65;;;;;;;10.35;74.46;99389.06;8458718;27;20059;-74
2022/04/26 17:43:54;;;;;;;24.90;12.88;;;;;;;10.21;74.95;99394.44;8500135;27;20039;-74
2022/04/26 17:47:55;;;;;;;23.63;13.85;;;;;;;10.08;75.58;99400.59;8445959;27;20125;-74
2022/04/26 17:51:56;;;;;;;23.63;13.80;;;;;;;9.98;76.46;99406.19;8498992;27;20096;-75
2022/04/26 18:00:17;;;;;;;22.70;15.48;;;;;;;9.85;77.12;99417.72;8498874;27;20648;-74
2022/04/26 18:04:17;;;;;;;25.92;16.52;;;;;;;9.77;77.49;99418.41;8498580;27;20190;-74
2022/04/26 18:08:19;;;;;;;24.70;15.57;;;;;;;9.73;77.99;99427.09;8498308;27;20059;-74
2022/04/26 18:12:21;;;;;;;28.05;16.15;;;;;;;9.71;78.38;99429.28;8498546;27;20408;-74
2022/04/26 18:16:23;;;;;;;30.88;16.48;;;;;;;9.63;78.84;99432.66;8499442;27;20074;-74
2022/04/26 18:20:23;;;;;;;34.03;18.70;;;;;;;9.57;79.14;99439.22;8498862;27;20130;-74
2022/04/26 18:24:25;;;;;;;41.13;21.13;;;;;;;9.58;79.08;99448.91;8505220;27;20046;-75
2022/04/26 18:28:26;;;;;;;41.75;22.15;;;;;;;9.58;79.12;99457.00;8531332;27;20476;-75
2022/04/26 18:32:27;;;;;;;37.15;21.27;;;;;;;9.50;79.44;99460.38;8526356;27;20047;-74
2022/04/26 18:36:30;;;;;;;43.58;22.23;;;;;;;9.41;79.91;99462.09;8506699;27;20882;-74
2022/04/26 18:40:32;;;;;;;53.30;24.80;;;;;;;9.31;80.35;99467.66;8515155;27;20290;-75
2022/04/26 18:44:33;;;;;;;52.63;27.70;;;;;;;9.16;80.78;99470.56;8508309;27;20051;-75
2022/04/26 18:48:37;;;;;;;52.17;26.55;;;;;;;9.04;81.06;99472.91;8473580;27;20067;-75
2022/04/26 18:52:37;;;;;;;44.92;22.95;;;;;;;8.83;81.67;99478.50;8507186;27;20043;-74
2022/04/26 18:56:39;;;;;;;38.08;20.38;;;;;;;8.67;82.08;99490.53;8531100;27;20509;-75
2022/04/26 19:00:40;;;;;;;39.65;19.10;;;;;;;8.53;82.31;99489.63;8521290;27;20067;-74
2022/04/26 19:04:41;;;;;;;40.42;20.02;;;;;;;8.43;82.23;99495.13;8517923;27;20529;-74
2022/04/26 19:08:42;;;;;;;37.60;20.33;;;;;;;8.33;82.22;99500.63;8508487;27;20050;-75
2022/04/26 19:12:43;;;;;;;44.85;23.52;;;;;;;8.15;82.49;99503.97;8520003;27;20065;-74
2022/04/26 19:16:44;;;;;;;46.72;22.27;;;;;;;8.04;82.61;99498.69;8480036;27;20575;-73
2022/04/26 19:20:45;;;;;;;39.15;21.67;;;;;;;7.92;82.92;99514.41;8515408;27;20416;-74
2022/04/26 19:24:46;;;;;;;34.90;20.63;;;;;;;7.78;82.88;99504.53;8515951;27;20046;-74
2022/04/26 19:28:49;;;;;;;36.03;20.02;;;;;;;7.63;83.56;99513.53;8512359;27;20051;-74
2022/04/26 19:32:50;;;;;;;40.15;20.85;;;;;;;7.49;83.51;99507.19;8511707;27;20051;-73
2022/04/26 19:36:51;;;;;;;41.58;23.15;;;;;;;7.33;83.94;99508.34;8519740;27;20042;-73
2022/04/26 19:40:52;;;;;;;36.38;20.42;;;;;;;7.24;84.23;99507.34;8521357;27;20099;-74
2022/04/26 19:44:55;;;;;;;38.45;20.42;;;;;;;7.11;84.01;99512.22;8506266;27;20039;-74
2022/04/26 19:48:56;;;;;;;37.00;20.42;;;;;;;6.97;84.47;99516.59;8510176;27;20134;-74
2022/04/26 19:52:57;;;;;;;37.25;21.00;;;;;;;6.84;84.82;99503.72;8521340;27;20039;-73
2022/04/26 19:56:58;;;;;;;35.42;19.58;;;;;;;6.73;84.87;99507.53;8488735;27;20492;-73
2022/04/26 20:01:01;;;;;;;33.03;18.15;;;;;;;6.65;84.75;99513.47;8514759;27;20420;-73
2022/04/26 20:05:02;;;;;;;32.05;18.52;;;;;;;6.55;85.18;99518.88;8458916;27;20047;-74
2022/04/26 20:09:04;;;;;;;32.25;18.00;;;;;;;6.48;85.18;99512.97;8513013;27;20051;-74
2022/04/26 20:13:05;;;;;;;37.53;20.73;;;;;;;6.43;85.36;99510.28;8528937;27;20102;-74
2022/04/26 20:17:06;;;;;;;34.35;20.50;;;;;;;6.40;85.13;99521.59;8526288;27;20111;-74
2022/04/26 20:21:08;;;;;;;32.20;19.70;;;;;;;6.39;85.53;99525.34;8481182;27;20138;-74
2022/04/26 20:25:09;;;;;;;37.55;20.42;;;;;;;6.39;85.63;99528.03;8527949;27;20038;-74
2022/04/26 20:33:29;;;;;;;30.45;18.08;;;;;;;6.48;85.21;99529.88;8528088;27;20058;-74
2022/04/26 20:37:30;;;;;;;40.92;17.98;;;;;;;6.55;85.02;99529.59;8509138;27;20045;-74
2022/04/26 20:41:31;;;;;;;29.35;17.15;;;;;;;6.59;84.85;99530.66;8526177;27;20051;-73
2022/04/26 20:45:34;;;;;;;31.50;16.77;;;;;;;6.59;84.97;99536.03;8477264;27;20130;-74
2022/04/26 20:49:35;;;;;;;28.88;17.05;;;;;;;6.57;85.06;99532.78;8481472;27;20043;-75
2022/04/26 20:53:37;;;;;;;27.80;17.13;;;;;;;6.56;85.46;99541.91;8458052;28;20442;-74
2022/04/26 20:57:39;;;;;;;28.10;17.42;;;;;;;6.55;85.56;99545.69;8493727;27;20051;-74
2022/04/26 21:01:40;;;;;;;31.90;18.58;;;;;;;6.53;85.55;99547.84;8499193;27;20047;-75
2022/04/26 21:05:42;;;;;;;33.60;18.25;;;;;;;6.49;85.65;99552.16;8517552;27;20050;-75
2022/04/26 21:09:43;;;;;;;32.72;19.13;;;;;;;6.45;85.71;99546.50;8533590;27;20047;-74
2022/04/26 21:13:44;;;;;;;35.17;17.65;;;;;;;6.40;86.02;99548.41;8461815;28;20040;-74
2022/04/26 21:17:45;;;;;;;31.30;16.35;;;;;;;6.36;86.10;99553.50;8410799;28;20216;-74
2022/04/26 21:21:47;;;;;;;30.67;17.27;;;;;;;6.31;86.28;99557.00;8377362;28;20085;-74
2022/04/26 21:25:48;;;;;;;29.05;16.58;;;;;;;6.25;86.54;99552.69;8461352;28;20442;-74
2022/04/26 21:29:49;;;;;;;27.25;15.98;;;;;;;6.18;86.56;99557.53;8460813;28;20044;-74
2022/04/26 21:33:50;;;;;;;24.65;14.95;;;;;;;6.10;86.73;99560.75;8461520;28;20489;-74
2022/04/26 21:37:51;;;;;;;24.83;15.40;;;;;;;6.02;86.68;99558.63;8460908;28;20100;-74
2022/04/26 21:41:52;;;;;;;21.85;13.77;;;;;;;5.92;86.81;99563.97;8460792;28;20522;-74
2022/04/26 21:45:53;;;;;;;25.77;14.70;;;;;;;5.86;86.97;99565.00;8426160;28;20052;-74
2022/04/26 21:54:13;;;;;;;24.95;14.10;;;;;;;5.66;87.46;99559.63;8527875;27;20565;-74
2022/04/26 21:58:14;;;;;;;30.33;13.32;;;;;;;5.56;87.65;99559.56;8498939;27;20055;-73
2022/04/26 22:02:16;;;;;;;23.65;12.88;;;;;;;5.47;87.61;99562.78;8500653;27;20146;-73
2022/04/26 22:06:16;;;;;;;21.90;11.80;;;;;;;5.40;87.51;99559.53;8503447;27;20099;-74
2022/04/26 22:10:18;;;;;;;26.15;12.82;;;;;;;5.30;87.82;99570.22;8466489;27;20047;-74
2022/04/26 22:14:19;;;;;;;25.05;13.55;;;;;;;5.23;87.95;99567.00;8479179;27;20051;-74
2022/04/26 22:18:21;;;;;;;21.15;12.40;;;;;;;5.17;87.97;99573.41;8519741;27;20046;-74
2022/04/26 22:22:22;;;;;;;26.08;13.20;;;;;;;5.13;87.62;99572.28;8518477;27;20529;-73
2022/04/26 22:26:23;;;;;;;27.13;15.23;;;;;;;5.05;87.86;99570.13;8455607;27;20039;-73
2022/04/26 22:30:24;;;;;;;25.30;13.75;;;;;;;4.96;88.00;99577.06;8476996;27;20126;-74
2022/04/26 22:34:26;;;;;;;25.42;13.75;;;;;;;4.91;88.20;99567.13;8531804;27;20476;-73
2022/04/26 22:38:27;;;;;;;22.85;13.50;;;;;;;4.87;88.29;99583.94;8422970;27;20412;-74
2022/04/26 22:42:28;;;;;;;25.35;14.32;;;;;;;4.82;88.30;99579.38;8501323;27;20058;-73
2022/04/26 22:46:29;;;;;;;20.17;12.25;;;;;;;4.77;88.21;99584.69;8503424;27;20500;-74
2022/04/26 22:50:30;;;;;;;22.65;12.60;;;;;;;4.71;88.22;99590.28;8508573;27;20047;-73
2022/04/26 22:54:31;;;;;;;23.50;13.27;;;;;;;4.65;88.30;99592.13;8500231;27;20087;-73
2022/04/26 22:58:32;;;;;;;20.40;11.88;;;;;;;4.56;88.25;99589.13;8514503;27;20050;-74
2022/04/26 23:02:34;;;;;;;22.88;11.10;;;;;;;4.49;88.44;99601.94;8476067;27;20446;-74
2022/04/26 23:06:35;;;;;;;20.48;11.40;;;;;;;4.44;88.29;99596.50;8502586;27;20535;-73
2022/04/26 23:10:38;;;;;;;20.38;12.05;;;;;;;4.38;88.30;99605.59;8496604;27;20075;-74
2022/04/26 23:14:39;;;;;;;20.15;12.18;;;;;;;4.32;88.43;99603.13;8478073;27;20066;-74
2022/04/26 23:18:40;;;;;;;21.52;11.68;;;;;;;4.27;88.33;99606.56;8513674;27;20114;-73